Nearby METAR Reports

 

KTTN - Trenton, New Jersey, USA
Distance from station: W 8mi, 12km
Updated: Sat, 18-May-2024 6:53am EDT
Overcast
Overcast
 Wind from ENE
Wind: ENE 3 mph, 6 km/h
Temperature: 57°F, 14°C
Dew Point: 55°F, 13°C
Humidity: 94%
Barometer: 29.97 inHg, 1014.9 hPa
Clouds: Overcast
Visibility: 10 miles, 16 km
Cloud details: Overcast 4000 ft
2024/05/18 10:53 KTTN 181053Z 07003KT 10SM OVC040 14/13 A2997 RMK AO2 SLP143 T01390128
KWRI - Wrightst/Mcguire, New Jersey, USA
Distance from station: SSE 18mi, 29km
Updated: Sat, 18-May-2024 6:55am EDT
Overcast
Overcast
 Wind from calm
Wind: Calm
Temperature: 57°F, 14°C
Dew Point: 55°F, 13°C
Humidity: 94%
Barometer: 29.98 inHg, 1015.2 hPa
Clouds: Overcast
Visibility: 10 miles, 16 km
Cloud details: Few Clouds 2300 ft
Overcast 3700 ft
2024/05/18 10:55 KWRI 181055Z AUTO 00000KT 10SM FEW023 OVC037 14/13 A2998 RMK AO2 SLPNO T01440128
KPNE - Philadelphia/Ne, Pennsylvania, USA
Distance from station: SW 22mi, 35km
Updated: Sat, 18-May-2024 6:54am EDT
Partly cloudy
Partly cloudy
 Wind from calm
Wind: Calm
Temperature: 61°F, 16°C
Dew Point: 55°F, 13°C
Humidity: 83%
Barometer: 29.99 inHg, 1015.6 hPa
Clouds: Partly cloudy
Visibility: 7 miles, 11 km
Cloud details: Partly cloudy 11000 ft
2024/05/18 10:54 KPNE 181054Z 00000KT 7SM SCT110 16/13 A2999 RMK AO2 SLP155 T01560133
 
KDYL - Doylestown, Pennsylvania, USA
Distance from station: W 24mi, 38km
Updated: Sat, 18-May-2024 6:54am EDT
Few Clouds
Few Clouds
 Wind from calm
Wind: Calm
Temperature: 57°F, 14°C
Dew Point: 57°F, 14°C
Humidity: 100%
Barometer: 29.97 inHg, 1014.9 hPa
Clouds: Few Clouds
Visibility: 8 miles, 13 km
Cloud details: Few Clouds 12000 ft
2024/05/18 10:54 KDYL 181054Z AUTO 00000KT 8SM FEW120 14/14 A2997 RMK AO2 SLP146 T01440139
KSMQ - Somerville, New Jersey, USA
Distance from station: 0 24mi, 39km
Updated: Sat, 18-May-2024 6:53am EDT
Overcast
Overcast
 Wind from calm
Wind: Calm
Temperature: 59°F, 15°C
Dew Point: 57°F, 14°C
Humidity: 94%
Barometer: 29.97 inHg, 1014.9 hPa
Clouds: Overcast
Visibility: 10 miles, 16 km
Cloud details: Mostly cloudy 3400 ft
Overcast 4400 ft
2024/05/18 10:53 KSMQ 181053Z AUTO 00000KT 10SM BKN034 OVC044 15/14 A2997 RMK AO2 SLP146 T01500144
KVAY - Mount Holly, New Jersey, USA
Distance from station: SSW 24mi, 39km
Updated: Sat, 18-May-2024 6:54am EDT
Overcast
Overcast
 Wind from calm
Wind: Calm
Temperature: 57°F, 14°C
Dew Point: 55°F, 13°C
Humidity: 94%
Barometer: 29.98 inHg, 1015.2 hPa
Clouds: Overcast
Visibility: 9 miles, 14 km
Cloud details: Mostly cloudy 3400 ft
Overcast 11000 ft
2024/05/18 10:54 KVAY 181054Z AUTO 00000KT 9SM BKN034 OVC110 14/13 A2998 RMK AO2 SLP152 T01390133
 
KNEL - Lakehurst Nas, New Jersey, USA
Distance from station: SE 25mi, 40km
Updated: Sat, 18-May-2024 7:00am EDT
Overcast
Overcast
 Wind from calm
Wind: Calm
Temperature: 57°F, 14°C
Dew Point: 55°F, 13°C
Humidity: 94%
Barometer: 29.98 inHg, 1015.2 hPa
Clouds: Overcast
Cloud details: Few Clouds 2700 ft
Overcast 4100 ft
2024/05/18 11:00 KNEL 181100Z AUTO 00000KT FEW027 OVC041 14/13 A2998 RMK AO2 SLP150 T01440133 $
KBLM - Belmar/Farmdale, New Jersey, USA
Distance from station: ESE 30mi, 48km
Updated: Sat, 18-May-2024 6:56am EDT
Overcast
Overcast
 Wind from calm
Wind: Calm
Temperature: 57°F, 14°C
Dew Point: 55°F, 13°C
Humidity: 94%
Barometer: 30.00 inHg, 1015.9 hPa
Clouds: Overcast
Visibility: 10 miles, 16 km
Cloud details: Overcast 3700 ft
2024/05/18 10:56 KBLM 181056Z AUTO 00000KT 10SM OVC037 14/13 A3000 RMK AO2 SLP159 T01440128
KMJX - Toms River, New Jersey, USA
Distance from station: SE 30mi, 49km
Updated: Sat, 18-May-2024 6:56am EDT
Overcast
Overcast
 Wind from calm
Wind: Calm
Temperature: 57°F, 14°C
Dew Point: 55°F, 13°C
Humidity: 94%
Barometer: 30.00 inHg, 1015.9 hPa
Clouds: Overcast
Visibility: 10 miles, 16 km
Cloud details: Overcast 3800 ft
2024/05/18 10:56 KMJX 181056Z AUTO 00000KT 10SM OVC038 14/13 A3000 RMK AO2 SLP163 T01390133
 
KLOM - Philly Wings F, Pennsylvania, USA
Distance from station: WSW 33mi, 52km
Updated: Sat, 18-May-2024 6:55am EDT
Haze, Overcast
Haze, Overcast
 Wind from calm
Wind: Calm
Temperature: 59°F, 15°C
Barometer: 29.98 inHg, 1015.2 hPa
Summary: Haze
Clouds: Overcast
Visibility: 5 miles, 8 km
Cloud details: Partly cloudy 8000 ft
Overcast 12000 ft
2024/05/18 10:55 KLOM 181055Z AUTO 00000KT 5SM HZ SCT080 OVC120 15/ A2998 RMK AO2 T0147////
KCKZ - Perkasie, Pennsylvania, USA
Distance from station: WNW 33mi, 53km
Updated: Sat, 18-May-2024 6:55am EDT
Mist, Partly cloudy
Mist, Partly cloudy
 Wind from calm
Wind: Calm
Temperature: 59°F, 15°C
Dew Point: 59°F, 15°C
Humidity: 100%
Barometer: 29.98 inHg, 1015.2 hPa
Summary: Mist
Clouds: Partly cloudy
Visibility: 5 miles, 8 km
Cloud details: Few Clouds 8000 ft
Partly cloudy 12000 ft
2024/05/18 10:55 KCKZ 181055Z AUTO 00000KT 5SM BR FEW080 SCT120 15/15 A2998 RMK AO2
KLDJ - Linden, New Jersey, USA
Distance from station: NE 33mi, 53km
Updated: Sat, 18-May-2024 6:55am EDT
Mostly cloudy
Mostly cloudy
 Wind from calm
Wind: Calm
Temperature: 61°F, 16°C
Dew Point: 52°F, 11°C
Humidity: 72%
Barometer: 29.98 inHg, 1015.2 hPa
Clouds: Mostly cloudy
Visibility: 10 miles, 16 km
Cloud details: Mostly cloudy 3100 ft
2024/05/18 10:55 KLDJ 181055Z AUTO 00000KT 10SM BKN031 16/11 A2998 RMK AO2 T01620113
 
KMMU - Morristown Muni, New Jersey, USA
Distance from station: NNE 38mi, 62km
Updated: Sat, 18-May-2024 6:45am EDT
Overcast
Overcast
 Wind from calm
Wind: Calm
Temperature: 59°F, 15°C
Dew Point: 59°F, 15°C
Humidity: 100%
Barometer: 29.99 inHg, 1015.6 hPa
Clouds: Overcast
Visibility: 10 miles, 16 km
Cloud details: Partly cloudy 3200 ft
Overcast 4000 ft
2024/05/18 10:45 KMMU 181045Z 00000KT 10SM SCT032 OVC040 15/15 A2999
KEWR - Newark, New Jersey, USA
Distance from station: NE 39mi, 63km
Updated: Sat, 18-May-2024 6:51am EDT
Mostly cloudy
Mostly cloudy
 Wind from NNE
Wind: NNE 8 mph, 13 km/h
Temperature: 61°F, 16°C
Dew Point: 54°F, 12°C
Humidity: 77%
Barometer: 29.98 inHg, 1015.2 hPa
Clouds: Mostly cloudy
Visibility: 10 miles, 16 km
Cloud details: Few Clouds 3200 ft
Few Clouds 15000 ft
Partly cloudy 20000 ft
Mostly cloudy 25000 ft
2024/05/18 10:51 KEWR 181051Z 02007KT 10SM FEW032 FEW150 SCT200 BKN250 16/12 A2998 RMK AO2 SLP150 T01610122
KUKT - Quakertown Arp, Pennsylvania, USA
Distance from station: WNW 39mi, 63km
Updated: Sat, 18-May-2024 6:55am EDT
Partly cloudy
Partly cloudy
 Wind from calm
Wind: Calm
Temperature: 59°F, 15°C
Dew Point: 59°F, 15°C
Humidity: 100%
Barometer: 29.98 inHg, 1015.2 hPa
Clouds: Partly cloudy
Visibility: 9 miles, 14 km
Cloud details: Partly cloudy 8500 ft
2024/05/18 10:55 KUKT 181055Z AUTO 00000KT 9SM SCT085 15/15 A2998 RMK AO2
 
KPHL - Philadelphia, Pennsylvania, USA
Distance from station: SW 40mi, 65km
Updated: Sat, 18-May-2024 6:54am EDT
Mist, Mostly cloudy
Mist, Mostly cloudy
 Wind from calm
Wind: Calm
Temperature: 61°F, 16°C
Dew Point: 59°F, 15°C
Humidity: 94%
Barometer: 29.97 inHg, 1014.9 hPa
Summary: Mist
Clouds: Mostly cloudy
Visibility: 4 miles, 6 km
Cloud details: Few Clouds 8000 ft
Partly cloudy 11000 ft
Mostly cloudy 20000 ft
2024/05/18 10:54 KPHL 181054Z 00000KT 4SM BR FEW080 SCT110 BKN200 16/15 A2997 RMK AO2 SLP148 T01610150
KJRB - Manhattan/Dwntwn, New York, USA
Distance from station: NE 46mi, 74km
Updated: Sat, 18-May-2024 6:56am EDT
Clear
Clear
 Wind from NE
Wind: NE 8 mph, 13 km/h
Temperature: 61°F, 16°C
Dew Point: 50°F, 10°C
Humidity: 68%
Barometer: 29.99 inHg, 1015.6 hPa
Clouds: Clear
Visibility: 10 miles, 16 km
2024/05/18 10:56 KJRB 181056Z AUTO 04007KT 10SM CLR 16/10 A2999 RMK AO2 SLP156 T01560100 PNO $
KPTW - Pottstown, Pennsylvania, USA
Distance from station: W 46mi, 74km
Updated: Sat, 18-May-2024 6:54am EDT
Mist, Clear
Mist, Clear
 Wind from calm
Wind: Calm
Temperature: 59°F, 15°C
Dew Point: 57°F, 14°C
Humidity: 94%
Barometer: 29.99 inHg, 1015.6 hPa
Summary: Mist
Clouds: Clear
Visibility: 4 miles, 6 km
2024/05/18 10:54 KPTW 181054Z AUTO 00000KT 4SM BR CLR 15/14 A2999 RMK AO2 SLP151 T01500139
 
KCDW - Caldwell, New Jersey, USA
Distance from station: NNE 47mi, 76km
Updated: Sat, 18-May-2024 6:53am EDT
Overcast
Overcast
 Wind from calm
Wind: Calm
Temperature: 61°F, 16°C
Dew Point: 55°F, 13°C
Humidity: 83%
Barometer: 29.99 inHg, 1015.6 hPa
Clouds: Overcast
Visibility: 10 miles, 16 km
Cloud details: Overcast 9000 ft
2024/05/18 10:53 KCDW 181053Z 00000KT 10SM OVC090 16/13 A2999 RMK AO2 SLP160 T01560128
KXLL - Allentown Queen, Pennsylvania, USA
Distance from station: WNW 47mi, 76km
Updated: Sat, 18-May-2024 6:55am EDT
Overcast
Overcast
 Wind from calm
Wind: Calm
Temperature: 61°F, 16°C
Dew Point: 59°F, 15°C
Humidity: 94%
Barometer: 29.98 inHg, 1015.2 hPa
Clouds: Overcast
Visibility: 10 miles, 16 km
Cloud details: Overcast 8000 ft
2024/05/18 10:55 KXLL 181055Z AUTO 00000KT 10SM OVC080 16/15 A2998 RMK AO2